sensor_id;sensor_type;location;lat;lon;timestamp;P1;durP1;ratioP1;P2;durP2;ratioP2
19951;SDS011;10137;49.406;19.484;2023-06-04T00:01:13;9.93;;;3.50;;
19951;SDS011;10137;49.406;19.484;2023-06-04T00:03:41;6.30;;;3.30;;
19951;SDS011;10137;49.406;19.484;2023-06-04T00:06:08;6.73;;;3.60;;
19951;SDS011;10137;49.406;19.484;2023-06-04T00:08:35;8.77;;;3.53;;
19951;SDS011;10137;49.406;19.484;2023-06-04T00:11:02;8.23;;;3.53;;
19951;SDS011;10137;49.406;19.484;2023-06-04T00:13:29;6.93;;;3.60;;
19951;SDS011;10137;49.406;19.484;2023-06-04T00:15:56;5.27;;;3.40;;
19951;SDS011;10137;49.406;19.484;2023-06-04T00:18:23;6.43;;;3.30;;
19951;SDS011;10137;49.406;19.484;2023-06-04T00:20:52;6.17;;;3.03;;
19951;SDS011;10137;49.406;19.484;2023-06-04T00:23:19;6.33;;;3.60;;
19951;SDS011;10137;49.406;19.484;2023-06-04T00:25:45;5.67;;;3.10;;
19951;SDS011;10137;49.406;19.484;2023-06-04T00:28:12;7.83;;;3.47;;
19951;SDS011;10137;49.406;19.484;2023-06-04T00:30:40;6.77;;;3.20;;
19951;SDS011;10137;49.406;19.484;2023-06-04T00:33:06;6.93;;;3.50;;
19951;SDS011;10137;49.406;19.484;2023-06-04T00:35:33;7.93;;;3.90;;
19951;SDS011;10137;49.406;19.484;2023-06-04T00:38:02;8.33;;;3.70;;
19951;SDS011;10137;49.406;19.484;2023-06-04T00:40:28;5.90;;;3.27;;
19951;SDS011;10137;49.406;19.484;2023-06-04T00:42:55;8.80;;;3.57;;
19951;SDS011;10137;49.406;19.484;2023-06-04T00:45:22;6.10;;;3.60;;
19951;SDS011;10137;49.406;19.484;2023-06-04T00:47:51;6.30;;;3.67;;
19951;SDS011;10137;49.406;19.484;2023-06-04T00:50:18;10.40;;;3.50;;
19951;SDS011;10137;49.406;19.484;2023-06-04T00:52:46;4.63;;;2.70;;
19951;SDS011;10137;49.406;19.484;2023-06-04T00:55:15;6.67;;;3.37;;
19951;SDS011;10137;49.406;19.484;2023-06-04T00:57:43;8.87;;;3.33;;
19951;SDS011;10137;49.406;19.484;2023-06-04T01:00:11;6.60;;;3.33;;
19951;SDS011;10137;49.406;19.484;2023-06-04T01:02:39;5.90;;;4.07;;
19951;SDS011;10137;49.406;19.484;2023-06-04T01:05:10;7.10;;;3.20;;
19951;SDS011;10137;49.406;19.484;2023-06-04T01:07:42;6.37;;;3.00;;
19951;SDS011;10137;49.406;19.484;2023-06-04T01:10:12;6.10;;;3.20;;
19951;SDS011;10137;49.406;19.484;2023-06-04T01:12:40;7.10;;;3.20;;
19951;SDS011;10137;49.406;19.484;2023-06-04T01:15:08;4.90;;;2.77;;
19951;SDS011;10137;49.406;19.484;2023-06-04T01:17:37;4.33;;;2.80;;
19951;SDS011;10137;49.406;19.484;2023-06-04T01:20:12;7.30;;;3.17;;
19951;SDS011;10137;49.406;19.484;2023-06-04T01:22:48;5.80;;;2.97;;
19951;SDS011;10137;49.406;19.484;2023-06-04T01:25:37;6.60;;;3.37;;
19951;SDS011;10137;49.406;19.484;2023-06-04T01:28:08;5.10;;;3.17;;
19951;SDS011;10137;49.406;19.484;2023-06-04T01:30:37;5.00;;;3.03;;
19951;SDS011;10137;49.406;19.484;2023-06-04T01:33:07;7.57;;;3.17;;
19951;SDS011;10137;49.406;19.484;2023-06-04T01:35:35;6.37;;;3.30;;
19951;SDS011;10137;49.406;19.484;2023-06-04T01:38:03;6.20;;;3.30;;
19951;SDS011;10137;49.406;19.484;2023-06-04T01:40:29;6.97;;;3.23;;
19951;SDS011;10137;49.406;19.484;2023-06-04T01:42:57;5.23;;;2.80;;
19951;SDS011;10137;49.406;19.484;2023-06-04T01:45:26;9.37;;;3.50;;
19951;SDS011;10137;49.406;19.484;2023-06-04T01:47:54;6.23;;;3.03;;
19951;SDS011;10137;49.406;19.484;2023-06-04T01:50:21;3.97;;;2.80;;
19951;SDS011;10137;49.406;19.484;2023-06-04T01:52:49;8.03;;;3.23;;
19951;SDS011;10137;49.406;19.484;2023-06-04T01:55:16;7.50;;;3.03;;
19951;SDS011;10137;49.406;19.484;2023-06-04T01:57:44;5.07;;;2.90;;
19951;SDS011;10137;49.406;19.484;2023-06-04T02:00:12;8.03;;;2.97;;
19951;SDS011;10137;49.406;19.484;2023-06-04T02:02:41;5.13;;;2.90;;
19951;SDS011;10137;49.406;19.484;2023-06-04T02:05:10;5.13;;;3.10;;
19951;SDS011;10137;49.406;19.484;2023-06-04T02:07:38;5.40;;;3.30;;
19951;SDS011;10137;49.406;19.484;2023-06-04T02:10:06;7.50;;;3.20;;
19951;SDS011;10137;49.406;19.484;2023-06-04T02:12:35;8.20;;;3.53;;
19951;SDS011;10137;49.406;19.484;2023-06-04T02:15:03;5.87;;;3.13;;
19951;SDS011;10137;49.406;19.484;2023-06-04T02:17:31;4.50;;;3.10;;
19951;SDS011;10137;49.406;19.484;2023-06-04T02:20:04;5.23;;;2.90;;
19951;SDS011;10137;49.406;19.484;2023-06-04T02:22:34;7.70;;;2.93;;
19951;SDS011;10137;49.406;19.484;2023-06-04T02:25:01;5.87;;;3.03;;
19951;SDS011;10137;49.406;19.484;2023-06-04T02:27:29;6.43;;;3.20;;
19951;SDS011;10137;49.406;19.484;2023-06-04T02:29:56;6.23;;;3.63;;
19951;SDS011;10137;49.406;19.484;2023-06-04T02:32:23;7.83;;;3.07;;
19951;SDS011;10137;49.406;19.484;2023-06-04T02:34:49;8.13;;;3.23;;
19951;SDS011;10137;49.406;19.484;2023-06-04T02:37:18;5.87;;;2.90;;
19951;SDS011;10137;49.406;19.484;2023-06-04T02:39:45;5.20;;;3.00;;
19951;SDS011;10137;49.406;19.484;2023-06-04T02:42:12;8.30;;;2.80;;
19951;SDS011;10137;49.406;19.484;2023-06-04T02:44:38;4.63;;;2.90;;
19951;SDS011;10137;49.406;19.484;2023-06-04T02:47:06;3.80;;;2.50;;
19951;SDS011;10137;49.406;19.484;2023-06-04T02:49:33;4.80;;;2.73;;
19951;SDS011;10137;49.406;19.484;2023-06-04T02:52:00;6.47;;;3.27;;
19951;SDS011;10137;49.406;19.484;2023-06-04T02:54:28;8.77;;;3.00;;
19951;SDS011;10137;49.406;19.484;2023-06-04T02:56:55;4.63;;;3.07;;
19951;SDS011;10137;49.406;19.484;2023-06-04T02:59:22;6.20;;;3.40;;
19951;SDS011;10137;49.406;19.484;2023-06-04T03:01:50;7.03;;;3.10;;
19951;SDS011;10137;49.406;19.484;2023-06-04T03:04:17;8.00;;;3.67;;
19951;SDS011;10137;49.406;19.484;2023-06-04T03:06:45;7.20;;;3.00;;
19951;SDS011;10137;49.406;19.484;2023-06-04T03:09:12;4.10;;;2.93;;
19951;SDS011;10137;49.406;19.484;2023-06-04T03:11:41;7.70;;;3.30;;
19951;SDS011;10137;49.406;19.484;2023-06-04T03:14:08;5.57;;;3.00;;
19951;SDS011;10137;49.406;19.484;2023-06-04T03:16:35;5.60;;;2.60;;
19951;SDS011;10137;49.406;19.484;2023-06-04T03:19:05;4.03;;;3.00;;
19951;SDS011;10137;49.406;19.484;2023-06-04T03:21:31;5.87;;;3.37;;
19951;SDS011;10137;49.406;19.484;2023-06-04T03:23:58;5.97;;;3.10;;
19951;SDS011;10137;49.406;19.484;2023-06-04T03:26:25;6.17;;;2.90;;
19951;SDS011;10137;49.406;19.484;2023-06-04T03:28:54;5.37;;;2.97;;
19951;SDS011;10137;49.406;19.484;2023-06-04T03:31:21;6.43;;;3.30;;
19951;SDS011;10137;49.406;19.484;2023-06-04T03:33:48;4.73;;;2.87;;
19951;SDS011;10137;49.406;19.484;2023-06-04T03:36:15;4.97;;;2.73;;
19951;SDS011;10137;49.406;19.484;2023-06-04T03:38:42;6.93;;;3.30;;
19951;SDS011;10137;49.406;19.484;2023-06-04T03:41:11;6.03;;;3.03;;
19951;SDS011;10137;49.406;19.484;2023-06-04T03:43:38;6.93;;;3.10;;
19951;SDS011;10137;49.406;19.484;2023-06-04T03:46:07;8.97;;;3.00;;
19951;SDS011;10137;49.406;19.484;2023-06-04T03:48:34;5.73;;;3.10;;
19951;SDS011;10137;49.406;19.484;2023-06-04T03:51:00;5.60;;;3.00;;
19951;SDS011;10137;49.406;19.484;2023-06-04T03:53:27;5.37;;;2.87;;
19951;SDS011;10137;49.406;19.484;2023-06-04T03:55:54;6.10;;;2.80;;
19951;SDS011;10137;49.406;19.484;2023-06-04T03:58:21;5.23;;;2.70;;
19951;SDS011;10137;49.406;19.484;2023-06-04T04:00:49;6.40;;;3.07;;
19951;SDS011;10137;49.406;19.484;2023-06-04T04:03:17;6.13;;;3.23;;
19951;SDS011;10137;49.406;19.484;2023-06-04T04:05:44;6.73;;;3.07;;
19951;SDS011;10137;49.406;19.484;2023-06-04T04:08:11;7.07;;;3.00;;
19951;SDS011;10137;49.406;19.484;2023-06-04T04:10:41;9.10;;;3.30;;
19951;SDS011;10137;49.406;19.484;2023-06-04T04:13:08;7.87;;;3.47;;
19951;SDS011;10137;49.406;19.484;2023-06-04T04:15:35;6.20;;;3.20;;
19951;SDS011;10137;49.406;19.484;2023-06-04T04:18:02;4.33;;;2.93;;
19951;SDS011;10137;49.406;19.484;2023-06-04T04:20:31;6.37;;;3.20;;
19951;SDS011;10137;49.406;19.484;2023-06-04T04:22:57;6.80;;;2.80;;
19951;SDS011;10137;49.406;19.484;2023-06-04T04:25:24;8.07;;;3.37;;
19951;SDS011;10137;49.406;19.484;2023-06-04T04:27:52;7.10;;;2.80;;
19951;SDS011;10137;49.406;19.484;2023-06-04T04:30:21;6.47;;;3.10;;
19951;SDS011;10137;49.406;19.484;2023-06-04T04:32:48;4.73;;;3.33;;
19951;SDS011;10137;49.406;19.484;2023-06-04T04:35:15;7.93;;;3.33;;
19951;SDS011;10137;49.406;19.484;2023-06-04T04:37:44;7.33;;;3.33;;
19951;SDS011;10137;49.406;19.484;2023-06-04T04:40:12;7.67;;;2.80;;
19951;SDS011;10137;49.406;19.484;2023-06-04T04:42:39;5.07;;;3.17;;
19951;SDS011;10137;49.406;19.484;2023-06-04T04:45:07;6.90;;;2.90;;
19951;SDS011;10137;49.406;19.484;2023-06-04T04:47:35;5.43;;;3.10;;
19951;SDS011;10137;49.406;19.484;2023-06-04T04:50:02;4.90;;;2.80;;
19951;SDS011;10137;49.406;19.484;2023-06-04T04:52:29;8.17;;;2.80;;
19951;SDS011;10137;49.406;19.484;2023-06-04T04:54:58;5.60;;;3.17;;
19951;SDS011;10137;49.406;19.484;2023-06-04T04:57:24;6.20;;;2.57;;
19951;SDS011;10137;49.406;19.484;2023-06-04T04:59:51;8.40;;;3.17;;
19951;SDS011;10137;49.406;19.484;2023-06-04T05:02:18;4.87;;;2.50;;
19951;SDS011;10137;49.406;19.484;2023-06-04T05:04:45;5.93;;;3.17;;
19951;SDS011;10137;49.406;19.484;2023-06-04T05:07:12;6.27;;;3.23;;
19951;SDS011;10137;49.406;19.484;2023-06-04T05:09:39;6.60;;;2.70;;
19951;SDS011;10137;49.406;19.484;2023-06-04T05:12:08;5.47;;;2.93;;
19951;SDS011;10137;49.406;19.484;2023-06-04T05:14:35;5.47;;;2.90;;
19951;SDS011;10137;49.406;19.484;2023-06-04T05:17:02;4.57;;;2.67;;
19951;SDS011;10137;49.406;19.484;2023-06-04T05:19:29;4.80;;;3.00;;
19951;SDS011;10137;49.406;19.484;2023-06-04T05:21:57;4.73;;;2.73;;
19951;SDS011;10137;49.406;19.484;2023-06-04T05:24:25;11.20;;;2.97;;
19951;SDS011;10137;49.406;19.484;2023-06-04T05:26:53;4.60;;;3.00;;
19951;SDS011;10137;49.406;19.484;2023-06-04T05:29:22;5.47;;;2.53;;
19951;SDS011;10137;49.406;19.484;2023-06-04T05:31:50;5.57;;;2.40;;
19951;SDS011;10137;49.406;19.484;2023-06-04T05:34:17;4.83;;;2.50;;
19951;SDS011;10137;49.406;19.484;2023-06-04T05:36:43;7.03;;;2.30;;
19951;SDS011;10137;49.406;19.484;2023-06-04T05:39:11;3.80;;;2.27;;
19951;SDS011;10137;49.406;19.484;2023-06-04T05:41:39;4.80;;;3.37;;
19951;SDS011;10137;49.406;19.484;2023-06-04T05:44:06;5.40;;;3.00;;
19951;SDS011;10137;49.406;19.484;2023-06-04T05:46:34;4.70;;;2.87;;
19951;SDS011;10137;49.406;19.484;2023-06-04T05:49:01;5.23;;;2.93;;
19951;SDS011;10137;49.406;19.484;2023-06-04T05:51:28;6.17;;;3.20;;
19951;SDS011;10137;49.406;19.484;2023-06-04T05:53:56;4.43;;;2.83;;
19951;SDS011;10137;49.406;19.484;2023-06-04T05:56:23;6.33;;;2.80;;
19951;SDS011;10137;49.406;19.484;2023-06-04T05:58:51;6.57;;;3.30;;
19951;SDS011;10137;49.406;19.484;2023-06-04T06:01:18;6.30;;;3.77;;
19951;SDS011;10137;49.406;19.484;2023-06-04T06:03:46;5.67;;;3.47;;
19951;SDS011;10137;49.406;19.484;2023-06-04T06:06:13;5.60;;;3.00;;
19951;SDS011;10137;49.406;19.484;2023-06-04T06:08:40;7.03;;;3.20;;
19951;SDS011;10137;49.406;19.484;2023-06-04T06:11:08;8.17;;;3.30;;
19951;SDS011;10137;49.406;19.484;2023-06-04T06:13:35;6.57;;;3.00;;
19951;SDS011;10137;49.406;19.484;2023-06-04T06:16:02;5.33;;;3.10;;
19951;SDS011;10137;49.406;19.484;2023-06-04T06:18:29;8.33;;;3.60;;
19951;SDS011;10137;49.406;19.484;2023-06-04T06:20:58;8.27;;;3.50;;
19951;SDS011;10137;49.406;19.484;2023-06-04T06:23:25;7.33;;;3.10;;
19951;SDS011;10137;49.406;19.484;2023-06-04T06:25:52;6.53;;;3.27;;
19951;SDS011;10137;49.406;19.484;2023-06-04T06:28:19;5.03;;;2.80;;
19951;SDS011;10137;49.406;19.484;2023-06-04T06:30:46;4.53;;;2.90;;
19951;SDS011;10137;49.406;19.484;2023-06-04T06:33:13;5.63;;;2.90;;
19951;SDS011;10137;49.406;19.484;2023-06-04T06:35:41;8.00;;;2.80;;
19951;SDS011;10137;49.406;19.484;2023-06-04T06:38:12;4.83;;;2.60;;
19951;SDS011;10137;49.406;19.484;2023-06-04T06:40:40;5.03;;;3.10;;
19951;SDS011;10137;49.406;19.484;2023-06-04T06:43:07;4.40;;;2.93;;
19951;SDS011;10137;49.406;19.484;2023-06-04T06:45:35;8.43;;;2.90;;
19951;SDS011;10137;49.406;19.484;2023-06-04T06:48:02;6.13;;;2.67;;
19951;SDS011;10137;49.406;19.484;2023-06-04T06:50:29;4.70;;;2.83;;
19951;SDS011;10137;49.406;19.484;2023-06-04T06:52:56;4.40;;;2.83;;
19951;SDS011;10137;49.406;19.484;2023-06-04T06:55:24;6.00;;;2.80;;
19951;SDS011;10137;49.406;19.484;2023-06-04T06:57:51;4.20;;;2.77;;
19951;SDS011;10137;49.406;19.484;2023-06-04T07:00:18;6.10;;;2.80;;
19951;SDS011;10137;49.406;19.484;2023-06-04T07:02:45;8.27;;;2.57;;
19951;SDS011;10137;49.406;19.484;2023-06-04T07:05:13;4.83;;;2.33;;
19951;SDS011;10137;49.406;19.484;2023-06-04T07:07:42;2.90;;;2.30;;
19951;SDS011;10137;49.406;19.484;2023-06-04T07:10:09;3.83;;;2.07;;
19951;SDS011;10137;49.406;19.484;2023-06-04T07:12:38;5.40;;;2.30;;
19951;SDS011;10137;49.406;19.484;2023-06-04T07:15:06;5.80;;;2.27;;
19951;SDS011;10137;49.406;19.484;2023-06-04T07:17:34;5.80;;;2.70;;
19951;SDS011;10137;49.406;19.484;2023-06-04T07:20:01;2.83;;;2.10;;
19951;SDS011;10137;49.406;19.484;2023-06-04T07:22:31;5.30;;;2.07;;
19951;SDS011;10137;49.406;19.484;2023-06-04T07:24:58;6.57;;;2.20;;
19951;SDS011;10137;49.406;19.484;2023-06-04T07:27:25;2.90;;;1.90;;
19951;SDS011;10137;49.406;19.484;2023-06-04T07:29:54;2.83;;;2.10;;
19951;SDS011;10137;49.406;19.484;2023-06-04T07:32:21;5.40;;;2.00;;
19951;SDS011;10137;49.406;19.484;2023-06-04T07:34:48;5.33;;;2.10;;
19951;SDS011;10137;49.406;19.484;2023-06-04T07:37:15;6.43;;;2.53;;
19951;SDS011;10137;49.406;19.484;2023-06-04T07:39:42;6.43;;;2.30;;
19951;SDS011;10137;49.406;19.484;2023-06-04T07:42:09;3.40;;;2.10;;
19951;SDS011;10137;49.406;19.484;2023-06-04T07:44:36;3.73;;;2.50;;
19951;SDS011;10137;49.406;19.484;2023-06-04T07:47:05;4.27;;;2.23;;
19951;SDS011;10137;49.406;19.484;2023-06-04T07:49:32;5.00;;;2.00;;
19951;SDS011;10137;49.406;19.484;2023-06-04T07:51:59;4.83;;;2.10;;
19951;SDS011;10137;49.406;19.484;2023-06-04T07:54:26;4.40;;;2.07;;
19951;SDS011;10137;49.406;19.484;2023-06-04T07:56:53;5.13;;;2.43;;
19951;SDS011;10137;49.406;19.484;2023-06-04T07:59:21;3.33;;;2.00;;
19951;SDS011;10137;49.406;19.484;2023-06-04T08:01:49;5.20;;;2.00;;
19951;SDS011;10137;49.406;19.484;2023-06-04T08:04:17;5.90;;;1.93;;
19951;SDS011;10137;49.406;19.484;2023-06-04T08:06:44;3.23;;;1.90;;
19951;SDS011;10137;49.406;19.484;2023-06-04T08:09:11;5.53;;;2.10;;
19951;SDS011;10137;49.406;19.484;2023-06-04T08:11:38;3.27;;;1.40;;
19951;SDS011;10137;49.406;19.484;2023-06-04T08:14:07;7.57;;;1.80;;
19951;SDS011;10137;49.406;19.484;2023-06-04T08:16:34;4.80;;;1.93;;
19951;SDS011;10137;49.406;19.484;2023-06-04T08:19:01;3.10;;;1.43;;
19951;SDS011;10137;49.406;19.484;2023-06-04T08:21:29;5.53;;;1.87;;
19951;SDS011;10137;49.406;19.484;2023-06-04T08:23:56;3.37;;;1.90;;
19951;SDS011;10137;49.406;19.484;2023-06-04T08:26:24;5.03;;;1.70;;
19951;SDS011;10137;49.406;19.484;2023-06-04T08:28:52;4.27;;;1.50;;
19951;SDS011;10137;49.406;19.484;2023-06-04T08:31:19;6.60;;;2.10;;
19951;SDS011;10137;49.406;19.484;2023-06-04T08:33:46;5.10;;;1.87;;
19951;SDS011;10137;49.406;19.484;2023-06-04T08:36:14;2.77;;;1.60;;
19951;SDS011;10137;49.406;19.484;2023-06-04T08:38:42;5.47;;;2.07;;
19951;SDS011;10137;49.406;19.484;2023-06-04T08:41:10;4.17;;;1.90;;
19951;SDS011;10137;49.406;19.484;2023-06-04T08:43:41;4.87;;;1.90;;
19951;SDS011;10137;49.406;19.484;2023-06-04T08:46:09;4.47;;;2.03;;
19951;SDS011;10137;49.406;19.484;2023-06-04T08:48:37;4.25;;;2.00;;
19951;SDS011;10137;49.406;19.484;2023-06-04T08:51:05;4.68;;;2.10;;
19951;SDS011;10137;49.406;19.484;2023-06-04T08:53:34;4.28;;;1.85;;
19951;SDS011;10137;49.406;19.484;2023-06-04T08:56:02;3.10;;;1.75;;
19951;SDS011;10137;49.406;19.484;2023-06-04T08:58:30;2.55;;;1.70;;
19951;SDS011;10137;49.406;19.484;2023-06-04T09:00:58;2.85;;;1.70;;
19951;SDS011;10137;49.406;19.484;2023-06-04T09:03:26;4.78;;;1.58;;
19951;SDS011;10137;49.406;19.484;2023-06-04T09:05:56;4.65;;;2.30;;
19951;SDS011;10137;49.406;19.484;2023-06-04T09:08:23;3.47;;;1.70;;
19951;SDS011;10137;49.406;19.484;2023-06-04T09:10:53;3.30;;;1.63;;
19951;SDS011;10137;49.406;19.484;2023-06-04T09:13:22;3.10;;;1.60;;
19951;SDS011;10137;49.406;19.484;2023-06-04T09:16:00;3.33;;;1.80;;
19951;SDS011;10137;49.406;19.484;2023-06-04T09:18:27;2.58;;;1.60;;
19951;SDS011;10137;49.406;19.484;2023-06-04T09:21:01;4.65;;;1.77;;
19951;SDS011;10137;49.406;19.484;2023-06-04T09:23:30;6.40;;;1.60;;
19951;SDS011;10137;49.406;19.484;2023-06-04T09:26:05;2.70;;;1.67;;
19951;SDS011;10137;49.406;19.484;2023-06-04T09:28:34;3.72;;;2.00;;
19951;SDS011;10137;49.406;19.484;2023-06-04T09:31:02;3.65;;;1.83;;
19951;SDS011;10137;49.406;19.484;2023-06-04T09:33:29;13.65;;;2.40;;
19951;SDS011;10137;49.406;19.484;2023-06-04T09:35:56;2.85;;;1.77;;
19951;SDS011;10137;49.406;19.484;2023-06-04T09:38:23;5.43;;;1.80;;
19951;SDS011;10137;49.406;19.484;2023-06-04T09:41:00;4.40;;;1.63;;
19951;SDS011;10137;49.406;19.484;2023-06-04T09:43:29;3.53;;;2.08;;
19951;SDS011;10137;49.406;19.484;2023-06-04T09:46:07;2.58;;;1.75;;
19951;SDS011;10137;49.406;19.484;2023-06-04T09:48:37;2.78;;;1.63;;
19951;SDS011;10137;49.406;19.484;2023-06-04T09:51:08;6.22;;;2.00;;
19951;SDS011;10137;49.406;19.484;2023-06-04T09:53:35;5.90;;;1.90;;
19951;SDS011;10137;49.406;19.484;2023-06-04T09:56:04;2.88;;;1.85;;
19951;SDS011;10137;49.406;19.484;2023-06-04T09:58:33;6.50;;;2.42;;
19951;SDS011;10137;49.406;19.484;2023-06-04T10:01:02;2.65;;;1.55;;
19951;SDS011;10137;49.406;19.484;2023-06-04T10:03:31;4.35;;;2.00;;
19951;SDS011;10137;49.406;19.484;2023-06-04T10:06:02;5.32;;;1.70;;
19951;SDS011;10137;49.406;19.484;2023-06-04T10:08:30;6.68;;;2.00;;
19951;SDS011;10137;49.406;19.484;2023-06-04T10:11:00;3.63;;;1.70;;
19951;SDS011;10137;49.406;19.484;2023-06-04T10:13:29;12.30;;;1.77;;
19951;SDS011;10137;49.406;19.484;2023-06-04T10:16:02;8.00;;;2.15;;
19951;SDS011;10137;49.406;19.484;2023-06-04T10:18:33;5.55;;;1.92;;
19951;SDS011;10137;49.406;19.484;2023-06-04T10:21:01;3.22;;;1.95;;
19951;SDS011;10137;49.406;19.484;2023-06-04T10:23:28;3.60;;;1.85;;
19951;SDS011;10137;49.406;19.484;2023-06-04T10:25:56;4.05;;;1.90;;
19951;SDS011;10137;49.406;19.484;2023-06-04T10:28:23;3.53;;;1.75;;
19951;SDS011;10137;49.406;19.484;2023-06-04T10:30:50;4.50;;;1.73;;
19951;SDS011;10137;49.406;19.484;2023-06-04T10:33:19;2.90;;;1.80;;
19951;SDS011;10137;49.406;19.484;2023-06-04T10:35:49;3.15;;;1.70;;
19951;SDS011;10137;49.406;19.484;2023-06-04T10:38:16;2.72;;;1.73;;
19951;SDS011;10137;49.406;19.484;2023-06-04T10:40:45;4.93;;;2.03;;
19951;SDS011;10137;49.406;19.484;2023-06-04T10:43:13;3.22;;;2.00;;
19951;SDS011;10137;49.406;19.484;2023-06-04T10:45:42;3.90;;;1.80;;
19951;SDS011;10137;49.406;19.484;2023-06-04T10:48:10;3.15;;;1.77;;
19951;SDS011;10137;49.406;19.484;2023-06-04T10:50:48;15.55;;;2.10;;
19951;SDS011;10137;49.406;19.484;2023-06-04T10:53:16;4.70;;;1.70;;
19951;SDS011;10137;49.406;19.484;2023-06-04T10:55:44;3.90;;;1.60;;
19951;SDS011;10137;49.406;19.484;2023-06-04T10:58:12;2.72;;;2.00;;
19951;SDS011;10137;49.406;19.484;2023-06-04T11:00:40;3.55;;;2.05;;
19951;SDS011;10137;49.406;19.484;2023-06-04T11:03:09;2.13;;;1.75;;
19951;SDS011;10137;49.406;19.484;2023-06-04T11:05:39;5.50;;;1.50;;
19951;SDS011;10137;49.406;19.484;2023-06-04T11:08:08;5.72;;;1.95;;
19951;SDS011;10137;49.406;19.484;2023-06-04T11:10:38;4.80;;;1.90;;
19951;SDS011;10137;49.406;19.484;2023-06-04T11:13:06;3.95;;;1.80;;
19951;SDS011;10137;49.406;19.484;2023-06-04T11:15:37;4.07;;;2.00;;
19951;SDS011;10137;49.406;19.484;2023-06-04T11:18:05;6.60;;;1.73;;
19951;SDS011;10137;49.406;19.484;2023-06-04T11:20:32;2.15;;;1.58;;
19951;SDS011;10137;49.406;19.484;2023-06-04T11:22:59;5.13;;;1.75;;
19951;SDS011;10137;49.406;19.484;2023-06-04T11:25:29;4.20;;;1.75;;
19951;SDS011;10137;49.406;19.484;2023-06-04T11:27:58;2.22;;;1.70;;
19951;SDS011;10137;49.406;19.484;2023-06-04T11:30:26;5.82;;;2.05;;
19951;SDS011;10137;49.406;19.484;2023-06-04T11:33:00;4.28;;;1.80;;
19951;SDS011;10137;49.406;19.484;2023-06-04T11:35:28;8.57;;;2.20;;
19951;SDS011;10137;49.406;19.484;2023-06-04T11:37:55;8.45;;;2.17;;
19951;SDS011;10137;49.406;19.484;2023-06-04T11:40:23;4.68;;;1.75;;
19951;SDS011;10137;49.406;19.484;2023-06-04T11:42:53;3.35;;;2.10;;
19951;SDS011;10137;49.406;19.484;2023-06-04T11:45:21;11.75;;;4.90;;
19951;SDS011;10137;49.406;19.484;2023-06-04T11:47:48;7.45;;;2.60;;
19951;SDS011;10137;49.406;19.484;2023-06-04T11:50:17;5.88;;;1.98;;
19951;SDS011;10137;49.406;19.484;2023-06-04T11:52:44;2.75;;;1.90;;
19951;SDS011;10137;49.406;19.484;2023-06-04T11:55:13;4.05;;;1.73;;
19951;SDS011;10137;49.406;19.484;2023-06-04T11:57:42;5.38;;;2.03;;
19951;SDS011;10137;49.406;19.484;2023-06-04T12:00:11;6.15;;;2.10;;
19951;SDS011;10137;49.406;19.484;2023-06-04T12:02:48;3.45;;;1.85;;
19951;SDS011;10137;49.406;19.484;2023-06-04T12:05:16;4.28;;;2.00;;
19951;SDS011;10137;49.406;19.484;2023-06-04T12:07:44;5.95;;;2.00;;
19951;SDS011;10137;49.406;19.484;2023-06-04T12:10:12;3.05;;;1.88;;
19951;SDS011;10137;49.406;19.484;2023-06-04T12:12:40;2.80;;;1.77;;
19951;SDS011;10137;49.406;19.484;2023-06-04T12:15:07;6.03;;;2.00;;
19951;SDS011;10137;49.406;19.484;2023-06-04T12:17:36;2.63;;;1.90;;
19951;SDS011;10137;49.406;19.484;2023-06-04T12:20:03;2.75;;;1.88;;
19951;SDS011;10137;49.406;19.484;2023-06-04T12:22:31;9.27;;;2.10;;
19951;SDS011;10137;49.406;19.484;2023-06-04T12:24:58;2.67;;;1.90;;
19951;SDS011;10137;49.406;19.484;2023-06-04T12:27:28;5.25;;;2.00;;
19951;SDS011;10137;49.406;19.484;2023-06-04T12:29:56;2.47;;;1.60;;
19951;SDS011;10137;49.406;19.484;2023-06-04T12:32:23;3.70;;;1.90;;
19951;SDS011;10137;49.406;19.484;2023-06-04T12:34:52;3.05;;;2.05;;
19951;SDS011;10137;49.406;19.484;2023-06-04T12:37:19;3.88;;;1.60;;
19951;SDS011;10137;49.406;19.484;2023-06-04T12:39:47;2.88;;;1.70;;
19951;SDS011;10137;49.406;19.484;2023-06-04T12:42:14;2.90;;;1.80;;
19951;SDS011;10137;49.406;19.484;2023-06-04T12:44:41;2.05;;;1.70;;
19951;SDS011;10137;49.406;19.484;2023-06-04T12:47:08;3.92;;;1.90;;
19951;SDS011;10137;49.406;19.484;2023-06-04T12:49:36;3.95;;;1.95;;
19951;SDS011;10137;49.406;19.484;2023-06-04T12:52:04;9.27;;;1.85;;
19951;SDS011;10137;49.406;19.484;2023-06-04T12:54:31;4.55;;;1.98;;
19951;SDS011;10137;49.406;19.484;2023-06-04T12:56:58;4.15;;;1.95;;
19951;SDS011;10137;49.406;19.484;2023-06-04T12:59:26;5.57;;;2.00;;
19951;SDS011;10137;49.406;19.484;2023-06-04T13:01:54;5.57;;;2.00;;
19951;SDS011;10137;49.406;19.484;2023-06-04T13:04:21;5.22;;;2.05;;
19951;SDS011;10137;49.406;19.484;2023-06-04T13:06:48;4.25;;;1.98;;
19951;SDS011;10137;49.406;19.484;2023-06-04T13:09:18;6.20;;;2.05;;
19951;SDS011;10137;49.406;19.484;2023-06-04T13:11:47;7.22;;;1.90;;
19951;SDS011;10137;49.406;19.484;2023-06-04T13:14:14;6.32;;;1.98;;
19951;SDS011;10137;49.406;19.484;2023-06-04T13:16:41;3.42;;;2.00;;
19951;SDS011;10137;49.406;19.484;2023-06-04T13:19:10;4.68;;;1.95;;
19951;SDS011;10137;49.406;19.484;2023-06-04T13:21:38;2.70;;;1.80;;
19951;SDS011;10137;49.406;19.484;2023-06-04T13:24:05;2.92;;;1.73;;
19951;SDS011;10137;49.406;19.484;2023-06-04T13:26:34;5.05;;;1.77;;
19951;SDS011;10137;49.406;19.484;2023-06-04T13:29:01;4.22;;;1.80;;
19951;SDS011;10137;49.406;19.484;2023-06-04T13:31:28;4.00;;;1.98;;
19951;SDS011;10137;49.406;19.484;2023-06-04T13:33:55;2.78;;;2.00;;
19951;SDS011;10137;49.406;19.484;2023-06-04T13:36:23;3.42;;;2.00;;
19951;SDS011;10137;49.406;19.484;2023-06-04T13:38:49;2.95;;;1.83;;
19951;SDS011;10137;49.406;19.484;2023-06-04T13:41:17;3.00;;;1.70;;
19951;SDS011;10137;49.406;19.484;2023-06-04T13:43:47;4.90;;;1.98;;
19951;SDS011;10137;49.406;19.484;2023-06-04T13:46:14;4.97;;;1.92;;
19951;SDS011;10137;49.406;19.484;2023-06-04T13:48:41;3.95;;;1.95;;
19951;SDS011;10137;49.406;19.484;2023-06-04T13:51:08;3.88;;;1.85;;
19951;SDS011;10137;49.406;19.484;2023-06-04T13:53:35;5.85;;;1.95;;
19951;SDS011;10137;49.406;19.484;2023-06-04T13:56:02;6.78;;;1.98;;
19951;SDS011;10137;49.406;19.484;2023-06-04T13:58:29;5.63;;;2.08;;
19951;SDS011;10137;49.406;19.484;2023-06-04T14:00:57;4.28;;;2.10;;
19951;SDS011;10137;49.406;19.484;2023-06-04T14:03:24;5.63;;;1.75;;
19951;SDS011;10137;49.406;19.484;2023-06-04T14:05:51;7.15;;;1.80;;
19951;SDS011;10137;49.406;19.484;2023-06-04T14:08:18;4.68;;;1.95;;
19951;SDS011;10137;49.406;19.484;2023-06-04T14:10:45;5.72;;;2.70;;
19951;SDS011;10137;49.406;19.484;2023-06-04T14:13:11;3.40;;;2.05;;
19951;SDS011;10137;49.406;19.484;2023-06-04T14:15:38;3.42;;;1.95;;
19951;SDS011;10137;49.406;19.484;2023-06-04T14:18:07;5.10;;;2.05;;
19951;SDS011;10137;49.406;19.484;2023-06-04T14:20:34;6.45;;;2.15;;
19951;SDS011;10137;49.406;19.484;2023-06-04T14:23:01;6.75;;;2.33;;
19951;SDS011;10137;49.406;19.484;2023-06-04T14:25:28;8.02;;;2.08;;
19951;SDS011;10137;49.406;19.484;2023-06-04T14:27:55;5.05;;;2.00;;
19951;SDS011;10137;49.406;19.484;2023-06-04T14:30:22;5.68;;;2.20;;
19951;SDS011;10137;49.406;19.484;2023-06-04T14:32:49;6.32;;;2.10;;
19951;SDS011;10137;49.406;19.484;2023-06-04T14:35:17;13.00;;;2.33;;
19951;SDS011;10137;49.406;19.484;2023-06-04T14:37:44;3.22;;;2.00;;